Seattle, Washington
Traffic Map
Current Weather Conditions
Seattle, Washington
Overcast
Overcast
61°
Feels Like: 61°
Wind Chill: 61° Ceiling: 7000
Heat Index: 61° Visibility: 10mi
Dew Point: 47° Wind: 12mph
Humidity: 60% Direction: 140° (SE)
Pressure: 29.83in Gusts: 0mph
Raw Report DataKBFI 220253Z 14010KT 10SM BKN070 OVC100 16/08 A2983 RMK AO2 SLP099 T01610083 58017
Traffic Incident Summary
Active as of:
Severity:
Category:
InformationThere was an issue retrieving the traffic information for this location. Please try a different location or try again shortly.
Advertisements
Track Severe Weather on mobile